Time;durP1;ratioP1;P1;durP2;ratioP2;P2;SDS_P1;SDS_P2;PMS_P1;PMS_P2;Temp;Humidity;BMP_temperature;BMP_pressure;BME280_temperature;BME280_humidity;BME280_pressure;Samples;Min_cycle;Max_cycle;Signal;HPM_P1;HPM_P2
2022/01/21 00:00:55;;;;;;;102.55;40.08;;;;;;;0.54;59.77;99671.50;3127826;28;20485;-62
2022/01/21 00:02:27;;;;;;;108.85;41.35;;;;;;;0.56;59.68;99658.66;3127860;28;20052;-61
2022/01/21 00:03:59;;;;;;;121.68;44.17;;;;;;;0.55;59.57;99668.06;3134986;28;20523;-61
2022/01/21 00:05:32;;;;;;;124.30;45.80;;;;;;;0.54;59.42;99668.94;3124178;28;20057;-61
2022/01/21 00:07:04;;;;;;;104.00;42.55;;;;;;;0.54;59.47;99668.94;3129326;28;20088;-63
2022/01/21 00:08:39;;;;;;;110.70;45.38;;;;;;;0.54;59.47;99668.94;3135234;28;20056;-63
2022/01/21 00:10:12;;;;;;;120.63;44.83;;;;;;;0.55;59.27;99675.75;3136533;28;20123;-64
2022/01/21 00:11:45;;;;;;;109.00;44.60;;;;;;;0.54;59.31;99674.06;3132244;28;20352;-63
2022/01/21 00:13:22;;;;;;;115.70;45.17;;;;;;;0.53;59.23;99677.47;3130916;28;20886;-63
2022/01/21 00:14:54;;;;;;;116.47;45.17;;;;;;;0.53;59.37;99682.59;3123897;28;20075;-63
2022/01/21 00:16:28;;;;;;;115.18;45.00;;;;;;;0.54;59.34;99681.75;3132198;28;20059;-63
2022/01/21 00:18:03;;;;;;;112.15;43.78;;;;;;;0.54;59.37;99679.19;3135295;28;20048;-62
2022/01/21 00:19:39;;;;;;;110.05;44.67;;;;;;;0.52;59.29;99680.91;3127358;28;20147;-62
2022/01/21 00:30:23;;;;;;;106.95;44.50;;;;;;;0.57;59.35;99674.06;3132670;28;20474;-63
2022/01/21 00:31:56;;;;;;;104.82;43.38;;;;;;;0.35;59.40;99631.50;3124504;28;20459;-63
2022/01/21 00:33:27;;;;;;;94.05;41.90;;;;;;;0.64;59.47;99669.72;3132041;28;20506;-64
2022/01/21 00:35:00;;;;;;;104.25;43.05;;;;;;;0.61;59.35;99662.91;3136396;28;20044;-63
2022/01/21 00:36:33;;;;;;;112.68;43.95;;;;;;;0.68;59.48;99672.28;3136819;28;20186;-63
2022/01/21 00:38:05;;;;;;;103.63;44.22;;;;;;;0.67;59.48;99665.44;3134348;28;20049;-63
2022/01/21 00:39:37;;;;;;;107.40;43.00;;;;;;;0.69;59.41;99660.31;3127175;28;20624;-64
2022/01/21 00:41:16;;;;;;;107.53;44.13;;;;;;;0.74;59.39;99652.56;3126326;28;20055;-64
2022/01/21 00:43:06;;;;;;;109.70;44.85;;;;;;;0.75;59.33;99647.44;3131395;28;21312;-63
2022/01/21 00:44:38;;;;;;;120.53;45.95;;;;;;;0.69;59.54;99637.22;3129684;28;20053;-63
2022/01/21 00:46:11;;;;;;;122.20;44.88;;;;;;;0.81;59.44;99646.53;3128389;28;20055;-63
2022/01/21 00:47:44;;;;;;;115.67;45.80;;;;;;;0.84;59.08;99643.94;3130679;28;20060;-64
2022/01/21 00:49:16;;;;;;;114.47;44.22;;;;;;;0.85;59.17;99633.66;3129910;28;20960;-64
2022/01/21 00:50:48;;;;;;;114.27;44.43;;;;;;;0.85;59.17;99632.81;3131177;28;20052;-64
2022/01/21 00:52:20;;;;;;;114.10;46.03;;;;;;;0.86;59.26;99632.81;3136530;28;20322;-63
2022/01/21 00:53:52;;;;;;;107.35;44.00;;;;;;;0.85;59.32;99625.97;3133789;28;20087;-63
2022/01/21 00:55:23;;;;;;;120.65;46.78;;;;;;;0.86;59.24;99630.25;3133106;28;20910;-63
2022/01/21 00:56:57;;;;;;;105.93;42.75;;;;;;;0.88;59.33;99627.66;3125102;28;20305;-63
2022/01/21 00:58:29;;;;;;;109.72;43.20;;;;;;;0.88;59.14;99632.78;3126497;28;20045;-62
2022/01/21 01:00:01;;;;;;;90.88;39.47;;;;;;;0.86;59.21;99630.25;3136366;28;20086;-62
2022/01/21 01:01:33;;;;;;;93.90;41.03;;;;;;;0.86;59.08;99631.97;3123115;28;20533;-64
2022/01/21 01:03:05;;;;;;;103.25;40.92;;;;;;;0.86;59.35;99624.28;3125976;28;20048;-63
2022/01/21 01:04:37;;;;;;;105.33;41.37;;;;;;;0.78;59.25;99610.69;3133074;28;20575;-63
2022/01/21 01:06:09;;;;;;;103.63;41.58;;;;;;;0.83;59.23;99620.03;3124394;28;20560;-62
2022/01/21 01:07:41;;;;;;;99.15;43.25;;;;;;;0.84;59.16;99621.72;3131727;28;20487;-63
2022/01/21 01:09:13;;;;;;;100.95;40.72;;;;;;;0.81;59.36;99614.06;3134802;28;20048;-63
2022/01/21 01:11:00;;;;;;;94.13;41.92;;;;;;;0.82;59.45;99622.59;3124496;28;20179;-63
2022/01/21 01:12:48;;;;;;;102.63;40.03;;;;;;;0.75;59.66;99637.19;3133522;28;20047;-63
2022/01/21 01:19:58;;;;;;;96.45;42.03;;;;;;;0.52;60.03;99624.53;3131939;28;20049;-63
2022/01/21 01:21:30;;;;;;;100.95;41.92;;;;;;;0.52;60.14;99616.00;3134967;28;20052;-63
2022/01/21 01:23:08;;;;;;;102.25;41.67;;;;;;;0.55;59.97;99623.66;3134853;28;20059;-63
2022/01/21 01:28:29;;;;;;;96.72;39.05;;;;;;;0.55;60.20;99600.59;3082856;28;20961;-63
2022/01/21 01:30:01;;;;;;;107.50;40.72;;;;;;;0.53;60.14;99608.28;3133121;28;20052;-63
2022/01/21 01:31:33;;;;;;;93.90;40.43;;;;;;;0.56;60.15;99613.44;3122533;28;20057;-63
2022/01/21 01:33:08;;;;;;;92.22;40.03;;;;;;;0.61;60.33;99623.63;3126080;28;20663;-63
2022/01/21 01:34:40;;;;;;;93.68;39.97;;;;;;;0.62;60.24;99631.31;3131966;28;20049;-63
2022/01/21 01:36:12;;;;;;;100.00;41.13;;;;;;;0.66;60.14;99627.84;3123480;28;20347;-64
2022/01/21 01:38:09;;;;;;;106.97;40.47;;;;;;;0.71;60.31;99638.09;3128638;28;20048;-63
2022/01/21 01:39:44;;;;;;;91.78;38.08;;;;;;;0.73;60.36;99645.75;3131666;28;20630;-63
2022/01/21 01:41:29;;;;;;;91.90;39.05;;;;;;;0.78;60.25;99642.28;3126823;28;20484;-64
2022/01/21 01:50:32;;;;;;;67.43;28.63;;;;;;;0.93;60.12;99661.81;3137468;28;20127;-64
2022/01/21 01:52:06;;;;;;;70.18;27.95;;;;;;;0.99;60.20;99669.47;3143418;28;20049;-63
2022/01/21 01:53:40;;;;;;;64.25;27.27;;;;;;;1.03;60.00;99672.84;3144573;28;20540;-63
2022/01/21 01:55:12;;;;;;;;;;;;;;;0.89;60.20;99673.81;3139159;28;20151;-63
2022/01/21 01:56:47;;;;;;;68.80;29.80;;;;;;;0.90;60.38;99652.44;3144813;28;19921;-63
2022/01/21 01:58:19;;;;;;;79.78;30.10;;;;;;;1.04;60.17;99657.47;3133590;28;20106;-64
2022/01/21 01:59:51;;;;;;;63.03;26.58;;;;;;;1.10;60.00;99647.13;3143030;28;20052;-63
2022/01/21 02:01:23;;;;;;;66.93;27.85;;;;;;;1.14;59.78;99651.38;3132975;28;20119;-64
2022/01/21 02:02:55;;;;;;;64.13;25.50;;;;;;;1.12;59.87;99658.25;3141845;28;20125;-64
2022/01/21 02:04:28;;;;;;;61.00;26.05;;;;;;;1.13;59.59;99666.78;3142304;28;20052;-63
2022/01/21 02:06:00;;;;;;;51.05;24.60;;;;;;;1.16;59.72;99673.59;3133245;28;20061;-63
2022/01/21 02:07:33;;;;;;;60.33;23.17;;;;;;;1.16;59.56;99673.59;3136710;28;20045;-63
2022/01/21 02:09:04;;;;;;;53.47;23.33;;;;;;;1.17;59.62;99665.03;3139251;28;20519;-63
2022/01/21 02:10:37;;;;;;;49.15;21.30;;;;;;;1.15;59.49;99665.03;3132161;28;20457;-63
2022/01/21 02:12:10;;;;;;;43.60;21.27;;;;;;;1.17;59.24;99663.31;3139333;28;20044;-63
2022/01/21 02:13:45;;;;;;;52.30;21.27;;;;;;;1.17;59.20;99673.56;3139524;28;20044;-63
2022/01/21 02:15:17;;;;;;;44.72;21.50;;;;;;;1.18;59.41;99674.41;3132802;28;20059;-63
2022/01/21 02:17:14;;;;;;;43.03;19.92;;;;;;;1.19;59.15;99676.16;3140775;28;20097;-63
2022/01/21 02:22:31;;;;;;;45.95;21.13;;;;;;;1.11;59.60;99664.22;3138313;28;20049;-63
2022/01/21 02:24:08;;;;;;;46.17;18.98;;;;;;;1.12;59.66;99678.75;3131760;28;20455;-63
2022/01/21 02:25:40;;;;;;;43.65;20.52;;;;;;;1.10;59.81;99687.34;3139444;28;20086;-62
2022/01/21 02:27:12;;;;;;;42.90;20.10;;;;;;;1.12;59.72;99689.03;3133967;28;20057;-63
2022/01/21 02:28:44;;;;;;;43.33;19.77;;;;;;;1.13;59.69;99685.59;3136766;28;20106;-63
2022/01/21 02:30:20;;;;;;;49.25;21.48;;;;;;;1.13;59.47;99682.19;3141406;28;20048;-63
2022/01/21 02:31:52;;;;;;;45.95;20.52;;;;;;;1.15;59.42;99677.84;3131457;28;20056;-63
2022/01/21 02:33:25;;;;;;;48.13;20.55;;;;;;;1.13;59.55;99677.88;3137644;28;20053;-63
2022/01/21 02:34:57;;;;;;;51.17;22.15;;;;;;;1.16;59.46;99678.75;3138470;28;20044;-63
2022/01/21 02:36:29;;;;;;;44.42;20.63;;;;;;;1.16;59.49;99673.59;3132326;28;20057;-63
2022/01/21 02:38:03;;;;;;;53.05;21.40;;;;;;;1.16;59.44;99671.88;3139504;28;20041;-63
2022/01/21 02:39:35;;;;;;;50.25;21.60;;;;;;;1.14;59.54;99666.75;3141260;28;20131;-63
2022/01/21 02:41:07;;;;;;;48.08;22.92;;;;;;;1.16;59.61;99673.59;3133137;28;20206;-63
2022/01/21 02:42:39;;;;;;;44.65;21.05;;;;;;;1.14;59.54;99671.88;3140802;28;20045;-63
2022/01/21 02:44:15;;;;;;;48.45;22.25;;;;;;;1.17;59.62;99675.28;3135410;28;20131;-63
2022/01/21 02:45:48;;;;;;;52.08;22.70;;;;;;;1.17;59.71;99683.84;3138033;28;20132;-63
2022/01/21 02:47:20;;;;;;;49.25;22.50;;;;;;;1.12;59.57;99673.63;3142693;28;20139;-63
2022/01/21 02:48:52;;;;;;;48.22;20.85;;;;;;;1.18;59.57;99682.97;3133216;28;20053;-63
2022/01/21 02:50:24;;;;;;;40.95;19.73;;;;;;;1.17;59.50;99681.28;3137787;28;20052;-64
2022/01/21 02:52:00;;;;;;;44.92;19.75;;;;;;;1.21;59.30;99669.25;3139209;28;20052;-63
2022/01/21 02:54:03;;;;;;;40.97;18.83;;;;;;;1.21;59.44;99677.81;3132150;28;20131;-63
2022/01/21 02:55:32;;;;;;;41.25;19.02;;;;;;;1.16;59.50;99676.16;3141015;28;20041;-63
2022/01/21 02:57:05;;;;;;;42.80;19.48;;;;;;;1.20;59.30;99670.13;3143080;28;20044;-63
2022/01/21 02:58:38;;;;;;;46.88;19.60;;;;;;;1.23;59.31;99665.81;3141902;28;20048;-63
2022/01/21 03:00:11;;;;;;;49.65;20.13;;;;;;;1.27;59.23;99669.19;3143056;28;20074;-63
2022/01/21 03:01:44;;;;;;;42.95;19.45;;;;;;;1.27;59.07;99659.81;3134293;28;20185;-62
2022/01/21 03:03:16;;;;;;;;;;;;;;;1.13;59.36;99659.09;3140668;28;20122;-62
2022/01/21 03:04:56;;;;;;;42.38;17.50;;;;;;;1.23;59.31;99653.00;3141347;28;19932;-64
2022/01/21 03:06:28;;;;;;;42.53;18.67;;;;;;;1.30;59.08;99652.09;3143933;28;20447;-62
2022/01/21 03:08:01;;;;;;;40.25;18.50;;;;;;;1.36;58.96;99635.75;3139892;28;20102;-62
2022/01/21 03:09:34;;;;;;;49.65;20.05;;;;;;;1.43;58.97;99637.41;3142897;28;20147;-62
2022/01/21 03:11:05;;;;;;;47.25;20.38;;;;;;;1.45;58.69;99640.81;3143480;28;20494;-62
2022/01/21 03:12:37;;;;;;;43.10;19.60;;;;;;;1.50;58.67;99646.72;3141641;28;20080;-62
2022/01/21 03:14:09;;;;;;;42.17;19.50;;;;;;;1.54;58.51;99650.97;3140371;28;20045;-62
2022/01/21 03:15:41;;;;;;;41.15;18.88;;;;;;;1.58;58.42;99642.38;3137025;28;20102;-64
2022/01/21 03:17:13;;;;;;;45.88;19.40;;;;;;;1.62;58.47;99650.03;3140862;28;20522;-64
2022/01/21 03:18:45;;;;;;;48.95;20.27;;;;;;;1.64;58.25;99649.16;3136211;28;20052;-64
2022/01/21 03:20:17;;;;;;;43.15;18.83;;;;;;;1.67;58.41;99640.56;3139275;28;20495;-64
2022/01/21 03:21:49;;;;;;;39.70;18.55;;;;;;;1.69;58.23;99644.81;3143166;28;20100;-64
2022/01/21 03:23:22;;;;;;;42.47;19.08;;;;;;;1.72;58.09;99641.38;3143485;28;20060;-64
2022/01/21 03:24:55;;;;;;;36.42;18.58;;;;;;;1.77;57.92;99647.28;3140273;28;20056;-64
2022/01/21 03:26:28;;;;;;;46.67;20.92;;;;;;;1.78;58.10;99643.88;3134690;28;20427;-63
2022/01/21 03:28:00;;;;;;;43.75;18.30;;;;;;;1.79;57.92;99643.00;3131234;28;20433;-63
2022/01/21 03:29:32;;;;;;;44.13;19.77;;;;;;;1.84;57.90;99643.78;3141559;28;20501;-63
2022/01/21 03:31:04;;;;;;;36.25;17.80;;;;;;;1.86;57.90;99631.75;3135894;28;20508;-64
2022/01/21 03:32:36;;;;;;;40.72;18.45;;;;;;;1.89;57.63;99631.72;3135396;28;20501;-64
2022/01/21 03:34:08;;;;;;;43.20;17.90;;;;;;;1.90;57.72;99624.91;3140811;28;20048;-64
2022/01/21 03:35:40;;;;;;;35.88;17.17;;;;;;;1.95;57.80;99641.94;3132029;28;20508;-63
2022/01/21 03:37:12;;;;;;;44.42;18.35;;;;;;;1.99;57.51;99637.63;3135932;28;20590;-63
2022/01/21 03:38:44;;;;;;;42.13;19.15;;;;;;;2.02;57.42;99629.88;3139019;28;20041;-63
2022/01/21 03:40:17;;;;;;;47.35;19.05;;;;;;;2.04;57.42;99628.97;3134660;28;20135;-63
2022/01/21 03:41:49;;;;;;;;;;;;;;;1.87;57.59;99632.63;3139839;28;20074;-64
2022/01/21 03:43:22;;;;;;;33.90;16.60;;;;;;;1.97;57.77;99639.34;3142896;28;19985;-63
2022/01/21 03:44:54;;;;;;;37.08;16.85;;;;;;;2.03;57.51;99641.84;3139627;28;20124;-63
2022/01/21 03:46:26;;;;;;;36.05;16.33;;;;;;;2.09;57.42;99646.88;3141531;28;20048;-63
2022/01/21 03:47:58;;;;;;;34.45;15.65;;;;;;;2.14;57.00;99647.69;3138180;28;20087;-62
2022/01/21 03:49:37;;;;;;;31.55;15.73;;;;;;;2.17;56.77;99645.06;3130314;28;20106;-62
2022/01/21 03:51:09;;;;;;;34.50;15.25;;;;;;;2.20;56.72;99646.75;3132317;28;20056;-63
2022/01/21 03:52:41;;;;;;;33.45;15.60;;;;;;;2.24;56.70;99638.97;3136826;28;20091;-63
2022/01/21 03:54:13;;;;;;;30.50;14.40;;;;;;;2.28;56.43;99632.94;3134503;28;20048;-63
2022/01/21 03:55:47;;;;;;;33.20;15.10;;;;;;;2.35;56.22;99638.81;3133062;28;20345;-63
2022/01/21 03:57:19;;;;;;;29.27;14.50;;;;;;;2.38;55.99;99633.63;3124499;28;20547;-63
2022/01/21 03:58:51;;;;;;;33.08;14.75;;;;;;;2.23;55.89;99605.59;3132768;28;20051;-63
2022/01/21 04:00:26;;;;;;;30.85;13.85;;;;;;;2.47;55.61;99641.22;3131967;28;20060;-63
2022/01/21 04:01:59;;;;;;;33.25;14.90;;;;;;;2.49;55.56;99636.91;3124861;28;20068;-63
2022/01/21 04:03:31;;;;;;;26.80;13.38;;;;;;;2.53;55.32;99635.13;3132688;28;20105;-63
2022/01/21 04:05:04;;;;;;;41.67;14.68;;;;;;;2.57;55.21;99636.78;3128696;28;20053;-63
2022/01/21 04:06:35;;;;;;;29.67;13.63;;;;;;;2.63;55.06;99635.84;3125700;28;20506;-63
2022/01/21 04:08:08;;;;;;;31.77;14.10;;;;;;;2.66;55.01;99636.66;3135061;28;20076;-63
2022/01/21 04:09:40;;;;;;;37.70;13.73;;;;;;;2.68;54.98;99626.34;3125279;28;20049;-63
2022/01/21 04:11:14;;;;;;;32.90;14.15;;;;;;;2.74;54.75;99629.66;3129498;28;20048;-63
2022/01/21 04:12:46;;;;;;;;;;;;;;;2.59;54.94;99647.03;3134424;28;20048;-63
2022/01/21 04:14:18;;;;;;;28.88;12.75;;;;;;;2.68;55.01;99637.47;3136120;28;20697;-63
2022/01/21 04:15:52;;;;;;;31.35;14.10;;;;;;;2.76;54.61;99637.34;3131382;28;20586;-63
2022/01/21 04:17:24;;;;;;;29.30;15.07;;;;;;;2.80;54.56;99631.28;3131039;28;20065;-63
2022/01/21 04:18:56;;;;;;;34.72;14.27;;;;;;;2.86;54.37;99626.03;3124335;28;20060;-62
2022/01/21 04:20:28;;;;;;;32.33;14.30;;;;;;;2.87;54.33;99614.00;3132061;28;20528;-63
2022/01/21 04:22:00;;;;;;;31.63;14.52;;;;;;;2.90;54.31;99612.25;3129416;28;20075;-63
2022/01/21 04:23:33;;;;;;;32.47;13.75;;;;;;;2.92;54.18;99615.63;3124684;28;20293;-61
2022/01/21 04:25:06;;;;;;;33.17;14.20;;;;;;;2.96;53.99;99619.88;3132709;28;20053;-61
2022/01/21 04:26:40;;;;;;;;;;;;;;;2.82;54.17;99611.53;3135580;28;20056;-62
2022/01/21 04:28:12;;;;;;;33.22;13.88;;;;;;;2.90;54.31;99601.97;3134239;28;19925;-63
2022/01/21 04:29:45;;;;;;;35.10;14.65;;;;;;;2.93;54.06;99588.22;3134832;28;20445;-62
2022/01/21 04:31:17;;;;;;;27.60;13.38;;;;;;;3.00;53.89;99588.94;3124402;28;20767;-62
2022/01/21 04:32:49;;;;;;;30.58;13.48;;;;;;;3.05;53.70;99592.31;3127553;28;20049;-62
2022/01/21 04:34:21;;;;;;;38.53;14.30;;;;;;;3.08;53.69;99587.09;3131958;28;20661;-62
2022/01/21 04:35:53;;;;;;;31.70;14.32;;;;;;;3.10;53.70;99587.91;3123895;28;20870;-62
2022/01/21 04:37:25;;;;;;;29.15;13.85;;;;;;;3.14;53.27;99592.97;3128920;28;20059;-62
2022/01/21 04:38:59;;;;;;;31.27;14.15;;;;;;;3.14;53.15;99587.81;3129647;28;20049;-62
2022/01/21 04:40:36;;;;;;;31.40;14.88;;;;;;;3.20;53.19;99602.31;3124915;28;20060;-62
2022/01/21 04:47:39;;;;;;;37.60;15.30;;;;;;;3.15;53.18;99612.66;3135384;28;20048;-63
2022/01/21 04:49:11;;;;;;;36.38;15.88;;;;;;;3.17;53.18;99628.94;3128077;28;20084;-63
2022/01/21 04:50:53;;;;;;;35.00;16.25;;;;;;;3.15;52.98;99624.69;3135700;28;20106;-63
2022/01/21 04:52:26;;;;;;;35.05;16.70;;;;;;;2.89;52.99;99584.81;3132493;28;20063;-63
2022/01/21 04:53:58;;;;;;;39.72;17.13;;;;;;;3.20;53.02;99628.03;3128335;28;20056;-63
2022/01/21 04:55:30;;;;;;;39.10;16.02;;;;;;;3.21;53.09;99637.44;3138089;28;20052;-63
2022/01/21 04:57:03;;;;;;;39.53;14.90;;;;;;;3.21;53.06;99652.03;3128205;28;20080;-63
2022/01/21 04:58:36;;;;;;;;;;;;;;;2.93;53.46;99650.78;3132046;28;20048;-63
2022/01/21 05:00:09;;;;;;;51.90;19.40;;;;;;;2.89;53.93;99649.13;3136918;28;19924;-63
2022/01/21 05:01:41;;;;;;;57.25;20.30;;;;;;;2.90;54.14;99658.56;3127953;28;20055;-63
2022/01/21 05:03:14;;;;;;;51.33;20.92;;;;;;;2.87;54.32;99661.19;3136305;28;20860;-63
2022/01/21 05:04:46;;;;;;;52.22;23.13;;;;;;;2.80;54.64;99669.84;3135791;28;20095;-63
2022/01/21 05:06:18;;;;;;;59.40;23.38;;;;;;;2.72;55.03;99671.69;3128140;28;20088;-63
2022/01/21 05:07:50;;;;;;;49.42;23.48;;;;;;;2.67;55.26;99678.63;3137193;28;20074;-63
2022/01/21 05:09:29;;;;;;;67.22;27.15;;;;;;;2.56;55.88;99670.22;3131063;28;20090;-65
2022/01/21 05:11:03;;;;;;;56.10;25.95;;;;;;;2.46;56.22;99675.50;3134060;28;20516;-64
2022/01/21 05:12:36;;;;;;;57.13;25.25;;;;;;;2.40;56.60;99682.47;3136788;28;20071;-63
2022/01/21 05:14:16;;;;;;;62.20;26.08;;;;;;;2.33;56.81;99688.53;3127781;28;20076;-66
2022/01/21 05:16:01;;;;;;;54.47;25.13;;;;;;;2.23;57.51;99690.38;3135100;28;20056;-64
2022/01/21 05:17:44;;;;;;;51.58;24.42;;;;;;;2.16;57.62;99683.59;3137370;28;20044;-63
2022/01/21 05:19:18;;;;;;;57.28;24.40;;;;;;;2.12;58.02;99695.66;3129793;28;20102;-62
2022/01/21 05:20:50;;;;;;;49.28;23.85;;;;;;;2.09;58.10;99699.97;3139601;28;20135;-62
2022/01/21 05:22:22;;;;;;;61.58;24.73;;;;;;;2.08;58.20;99696.56;3138774;28;20060;-62
2022/01/21 05:23:54;;;;;;;55.80;24.10;;;;;;;2.09;58.46;99702.56;3132396;28;20044;-61
2022/01/21 05:25:26;;;;;;;50.10;23.17;;;;;;;2.05;58.55;99706.88;3136940;28;20824;-62
2022/01/21 05:27:01;;;;;;;52.22;23.02;;;;;;;2.02;58.88;99715.47;3127925;28;20049;-62
2022/01/21 05:28:33;;;;;;;60.10;22.80;;;;;;;1.99;59.08;99727.50;3133816;28;20456;-62
2022/01/21 05:30:08;;;;;;;50.50;23.07;;;;;;;2.02;58.86;99723.19;3139339;28;20365;-62
2022/01/21 05:31:40;;;;;;;45.95;21.70;;;;;;;2.05;58.86;99722.28;3139228;28;20135;-62
2022/01/21 05:33:12;;;;;;;52.80;21.63;;;;;;;1.77;58.96;99680.66;3135085;28;20057;-62
2022/01/21 05:34:44;;;;;;;53.88;22.63;;;;;;;2.08;59.01;99731.69;3134787;28;20040;-62
2022/01/21 05:36:18;;;;;;;49.63;23.55;;;;;;;2.07;59.29;99735.09;3129852;28;20130;-62
2022/01/21 05:37:49;;;;;;;52.42;23.90;;;;;;;2.03;59.98;99737.72;3137429;28;20064;-62
2022/01/21 05:39:22;;;;;;;49.38;22.13;;;;;;;2.00;60.06;99747.16;3132456;28;20048;-63
2022/01/21 05:40:54;;;;;;;46.40;21.47;;;;;;;1.94;60.34;99748.09;3131942;28;20129;-62
2022/01/21 05:42:26;;;;;;;48.47;23.13;;;;;;;1.94;60.61;99753.22;3138724;28;20418;-63
2022/01/21 05:44:02;;;;;;;50.78;23.45;;;;;;;2.00;60.74;99754.88;3139641;28;20403;-63
2022/01/21 05:47:33;;;;;;;40.35;21.13;;;;;;;1.99;60.84;99748.91;3086208;28;20058;-64
2022/01/21 05:49:05;;;;;;;53.92;22.85;;;;;;;2.10;61.04;99764.19;3128492;28;20052;-64
2022/01/21 05:50:37;;;;;;;58.50;22.45;;;;;;;2.12;61.19;99767.59;3139041;28;20051;-65
2022/01/21 05:52:15;;;;;;;54.85;23.27;;;;;;;2.15;61.43;99764.97;3135799;28;20079;-64
2022/01/21 05:53:47;;;;;;;49.80;21.83;;;;;;;2.13;61.92;99774.44;3131835;28;20056;-64
2022/01/21 05:55:20;;;;;;;48.25;22.58;;;;;;;2.20;61.75;99782.91;3137408;28;20044;-63
2022/01/21 05:56:52;;;;;;;54.87;24.23;;;;;;;2.08;62.06;99753.09;3132373;28;20045;-64
2022/01/21 05:58:24;;;;;;;58.95;25.10;;;;;;;2.32;62.29;99787.91;3137560;28;20317;-64
2022/01/21 05:59:55;;;;;;;55.28;24.60;;;;;;;2.40;62.47;99787.84;3141424;28;20049;-64
2022/01/21 06:01:29;;;;;;;51.15;23.92;;;;;;;2.45;62.50;99797.16;3132585;28;20052;-64
2022/01/21 06:03:00;;;;;;;;;;;;;;;2.32;62.57;99805.06;3141183;28;20053;-64
2022/01/21 06:04:33;;;;;;;56.58;24.25;;;;;;;2.25;63.13;99776.03;3138271;28;20282;-64
2022/01/21 06:06:05;;;;;;;61.53;24.95;;;;;;;2.54;63.29;99811.63;3133752;28;20049;-64
2022/01/21 06:07:37;;;;;;;58.88;26.70;;;;;;;2.60;63.38;99810.69;3140892;28;20141;-64
2022/01/21 06:09:09;;;;;;;60.10;27.40;;;;;;;2.66;63.72;99819.22;3135392;28;20041;-64
2022/01/21 06:10:41;;;;;;;70.43;27.83;;;;;;;2.69;64.10;99816.59;3134214;28;20610;-64
2022/01/21 06:12:13;;;;;;;48.72;25.25;;;;;;;2.74;64.39;99808.81;3140210;28;20048;-64
2022/01/21 06:13:46;;;;;;;56.85;24.67;;;;;;;2.73;64.47;99812.25;3133372;28;20068;-64
2022/01/21 06:15:18;;;;;;;50.60;23.25;;;;;;;2.79;64.79;99826.75;3141236;28;20078;-64
2022/01/21 06:16:51;;;;;;;47.33;22.80;;;;;;;2.86;64.99;99839.50;3141821;28;20108;-64
2022/01/21 06:18:23;;;;;;;53.55;23.33;;;;;;;2.85;65.41;99836.97;3144285;28;20070;-64
2022/01/21 06:19:55;;;;;;;44.10;21.23;;;;;;;2.89;65.56;99833.47;3139343;28;20060;-64
2022/01/21 06:21:27;;;;;;;44.90;22.52;;;;;;;2.90;65.77;99841.19;3140188;28;20053;-64
2022/01/21 06:23:00;;;;;;;50.47;23.40;;;;;;;2.94;65.89;99837.69;3132557;28;20045;-64
2022/01/21 06:24:32;;;;;;;46.78;22.08;;;;;;;2.97;66.28;99844.50;3139651;28;20126;-64
2022/01/21 06:26:04;;;;;;;46.33;22.42;;;;;;;3.00;66.46;99836.75;3139010;28;20517;-64
2022/01/21 06:27:38;;;;;;;48.10;22.63;;;;;;;3.01;66.84;99853.88;3138739;28;20439;-64
2022/01/21 06:29:10;;;;;;;44.40;21.35;;;;;;;3.03;67.10;99852.16;3140480;28;20052;-66
2022/01/21 06:30:42;;;;;;;41.83;21.75;;;;;;;3.05;67.18;99850.41;3139531;28;20060;-64
2022/01/21 06:32:15;;;;;;;45.40;22.15;;;;;;;3.10;67.47;99853.75;3137814;28;20045;-64
2022/01/21 06:33:47;;;;;;;45.78;21.85;;;;;;;3.08;67.80;99857.25;3141567;28;20097;-64
2022/01/21 06:35:20;;;;;;;45.65;21.85;;;;;;;3.13;67.94;99855.44;3141256;28;20060;-64
2022/01/21 06:36:51;;;;;;;52.85;22.50;;;;;;;3.18;68.08;99862.22;3140642;28;20078;-64
2022/01/21 06:38:24;;;;;;;50.72;24.00;;;;;;;3.19;68.33;99858.78;3137197;28;20052;-64
2022/01/21 06:39:56;;;;;;;47.47;21.38;;;;;;;3.22;68.74;99865.59;3122847;28;20056;-64
2022/01/21 06:41:28;;;;;;;44.65;23.15;;;;;;;3.25;68.97;99875.84;3128411;28;20513;-64
2022/01/21 06:43:03;;;;;;;46.25;22.20;;;;;;;3.29;69.18;99879.25;3130403;28;20224;-64
2022/01/21 06:44:35;;;;;;;46.70;22.45;;;;;;;3.31;69.40;99892.94;3122542;28;20049;-64
2022/01/21 06:46:07;;;;;;;43.22;20.65;;;;;;;3.17;69.65;99865.69;3132456;28;20044;-64
2022/01/21 06:47:40;;;;;;;41.28;20.35;;;;;;;3.36;69.94;99896.28;3129137;28;20803;-62
2022/01/21 06:49:12;;;;;;;30.70;15.82;;;;;;;3.36;69.97;99892.00;3133778;28;20375;-63
2022/01/21 06:50:45;;;;;;;29.00;14.30;;;;;;;3.38;70.42;99895.41;3134389;28;20056;-61
2022/01/21 06:52:17;;;;;;;24.52;11.30;;;;;;;3.42;70.60;99891.91;3134677;28;20136;-62
2022/01/21 06:53:49;;;;;;;19.00;9.63;;;;;;;3.45;70.83;99897.88;3132899;28;20059;-62
2022/01/21 06:55:21;;;;;;;17.35;8.07;;;;;;;3.46;70.89;99892.72;3131946;28;20489;-62
2022/01/21 06:56:53;;;;;;;16.33;8.38;;;;;;;3.48;71.28;99901.25;3134370;28;20056;-62
2022/01/21 06:58:26;;;;;;;17.40;7.65;;;;;;;3.52;71.40;99902.06;3129554;28;20165;-62
2022/01/21 06:59:58;;;;;;;16.35;7.22;;;;;;;3.54;71.45;99901.16;3131368;28;20557;-62
2022/01/21 07:01:30;;;;;;;14.07;7.40;;;;;;;3.54;71.67;99896.03;3135734;28;20074;-62
2022/01/21 07:03:04;;;;;;;13.15;7.55;;;;;;;3.59;71.79;99898.53;3131441;28;20159;-62
2022/01/21 07:04:37;;;;;;;12.07;6.68;;;;;;;3.58;72.02;99904.53;3129160;28;21010;-61
2022/01/21 07:06:09;;;;;;;14.38;7.20;;;;;;;3.58;72.02;99909.69;3122822;28;20091;-62
2022/01/21 07:07:41;;;;;;;10.30;5.32;;;;;;;3.60;72.17;99905.38;3129816;28;20703;-64
2022/01/21 07:09:13;;;;;;;9.40;4.47;;;;;;;3.58;72.22;99908.00;3126986;28;20049;-62
2022/01/21 07:10:45;;;;;;;10.65;4.65;;;;;;;3.59;72.35;99912.25;3124684;28;20114;-63
2022/01/21 07:12:18;;;;;;;7.32;3.65;;;;;;;3.60;72.51;99915.69;3132039;28;20052;-63
2022/01/21 07:13:51;;;;;;;9.20;5.15;;;;;;;3.59;72.47;99914.84;3125790;28;20049;-61
2022/01/21 07:15:24;;;;;;;8.65;4.00;;;;;;;3.62;72.41;99924.25;3129685;28;20076;-62
2022/01/21 07:16:56;;;;;;;6.32;3.45;;;;;;;3.59;72.66;99920.00;3131097;28;20679;-63
2022/01/21 07:18:29;;;;;;;5.72;3.47;;;;;;;3.64;72.70;99937.97;3124745;28;20114;-62
2022/01/21 07:20:01;;;;;;;6.47;3.10;;;;;;;3.62;72.55;99934.53;3130822;28;20553;-63
2022/01/21 07:21:33;;;;;;;6.57;3.50;;;;;;;3.64;72.72;99945.69;3133781;28;20067;-62
2022/01/21 07:23:14;;;;;;;5.30;3.35;;;;;;;3.64;72.74;99940.53;3132828;28;20049;-63
2022/01/21 07:24:46;;;;;;;6.10;3.28;;;;;;;3.58;72.77;99946.63;3132658;28;20056;-63
2022/01/21 07:26:18;;;;;;;6.35;3.17;;;;;;;3.59;72.69;99952.63;3136604;28;20439;-61
2022/01/21 07:27:51;;;;;;;14.40;7.10;;;;;;;3.59;72.77;99950.88;3134584;28;20121;-63
2022/01/21 07:29:23;;;;;;;9.18;4.25;;;;;;;3.55;72.63;99954.41;3134332;28;20049;-63
2022/01/21 07:30:55;;;;;;;7.50;3.83;;;;;;;3.55;72.64;99963.81;3135407;28;20048;-63
2022/01/21 07:32:27;;;;;;;7.15;3.53;;;;;;;3.54;72.56;99968.13;3135331;28;20054;-63
2022/01/21 07:34:04;;;;;;;5.43;3.17;;;;;;;3.51;72.64;99957.03;3133386;28;20301;-63
2022/01/21 07:35:36;;;;;;;6.60;3.13;;;;;;;3.28;72.61;99935.00;3128908;28;20044;-63
2022/01/21 07:37:09;;;;;;;10.70;5.60;;;;;;;3.45;72.81;99960.53;3133018;28;20067;-64
2022/01/21 07:38:41;;;;;;;12.32;6.07;;;;;;;3.47;72.75;99963.09;3134147;28;20380;-64
2022/01/21 07:40:14;;;;;;;8.98;4.60;;;;;;;3.45;72.94;99970.81;3124627;28;20289;-63
2022/01/21 07:41:46;;;;;;;10.35;4.85;;;;;;;3.25;72.83;99939.34;3129926;28;20109;-65
2022/01/21 07:43:18;;;;;;;7.40;3.72;;;;;;;3.40;72.76;99962.31;3131391;28;20044;-64
2022/01/21 07:44:51;;;;;;;11.20;4.00;;;;;;;3.43;72.92;99969.97;3128689;28;20168;-64
2022/01/21 07:46:23;;;;;;;8.55;3.88;;;;;;;3.39;72.83;99966.59;3135449;28;20520;-63
2022/01/21 07:47:55;;;;;;;9.13;4.65;;;;;;;3.42;72.99;99979.44;3133542;28;20077;-63
2022/01/21 07:49:29;;;;;;;10.13;5.18;;;;;;;3.43;72.73;99967.41;3131872;28;20174;-63
2022/01/21 07:51:01;;;;;;;10.38;4.85;;;;;;;3.38;72.90;99980.34;3131818;28;20056;-63
2022/01/21 07:52:33;;;;;;;10.30;5.20;;;;;;;3.30;73.04;99955.59;3133528;28;20049;-63